Time;durP1;ratioP1;P1;durP2;ratioP2;P2;SDS_P1;SDS_P2;PMS_P1;PMS_P2;Temp;Humidity;BMP_temperature;BMP_pressure;BME280_temperature;BME280_humidity;BME280_pressure;Samples;Min_cycle;Max_cycle;Signal;HPM_P1;HPM_P2
2023/06/03 05:09:14;;;;;;;;;;;;;;;;;;5066955;28;19953;-37
2023/06/03 05:11:40;;;;;;;;;;;;;;;;;;5051278;28;19929;-37
2023/06/03 05:14:07;;;;;;;;;;;;;;;;;;5051690;28;19963;-37
2023/06/03 05:16:33;;;;;;;;;;;;;;;;;;5069332;28;20403;-37
2023/06/03 05:18:58;;;;;;;;;;;;;;;;;;5069530;28;19912;-37
2023/06/03 05:21:25;;;;;;;;;;;;;;;;;;5050018;28;20037;-37
2023/06/03 05:23:51;;;;;;;;;;;;;;;;;;5061225;28;19916;-37
2023/06/03 05:26:17;;;;;;;;;;;;;;;;;;5067726;28;19917;-37
2023/06/03 05:28:45;;;;;;;;;;;;;;;;;;5068817;28;19908;-37
2023/06/03 05:31:11;;;;;;;;;;;;;;;;;;5068602;28;19917;-37
2023/06/03 05:33:37;;;;;;;;;;;;;;;;;;5069557;28;19923;-37
2023/06/03 05:36:03;;;;;;;;;;;;;;;;;;5070789;28;19920;-37
2023/06/03 05:38:30;;;;;;;;;;;;;;;;;;5068609;28;19924;-37
2023/06/03 05:40:56;;;;;;;;;;;;;;;;;;5068598;28;19913;-37
2023/06/03 05:43:23;;;;;;;;;;;;;;;;;;5070394;28;19913;-37
2023/06/03 05:45:49;;;;;;;;;;;;;;;;;;5086226;28;20309;-37
2023/06/03 05:48:15;;;;;;;;;;;;;;;;;;5090389;28;19962;-37
2023/06/03 05:50:41;;;;;;;;;;;;;;;;;;5070245;28;20003;-37
2023/06/03 05:53:07;;;;;;;;;;;;;;;;;;5069877;28;19982;-38
2023/06/03 05:55:33;;;;;;;;;;;;;;;;;;5051408;28;19913;-37
2023/06/03 05:57:58;;;;;;;;;;;;;;;;;;5086032;28;19949;-37
2023/06/03 06:00:24;;;;;;;;;;;;;;;;;;5076436;28;20402;-37
2023/06/03 06:02:50;;;;;;;;;;;;;;;;;;5069198;28;19920;-37
2023/06/03 06:05:16;;;;;;;;;;;;;;;;;;5051572;28;19908;-37
2023/06/03 06:07:42;;;;;;;;;;;;;;;;;;5069318;28;19920;-38
2023/06/03 06:10:08;;;;;;;;;;;;;;;;;;5067924;28;19916;-37
2023/06/03 06:12:35;;;;;;;;;;;;;;;;;;5068514;28;19966;-37
2023/06/03 06:15:01;;;;;;;;;;;;;;;;;;5069463;28;19966;-38
2023/06/03 06:17:27;;;;;;;;;;;;;;;;;;5069790;28;19924;-38
2023/06/03 06:19:53;;;;;;;;;;;;;;;;;;5063867;28;19999;-37
2023/06/03 06:22:19;;;;;;;;;;;;;;;;;;5049730;28;19912;-37
2023/06/03 06:24:45;;;;;;;;;;;;;;;;;;5050449;28;19948;-37
2023/06/03 06:27:11;;;;;;;;;;;;;;;;;;5056895;28;19913;-38
2023/06/03 06:29:36;;;;;;;;;;;;;;;;;;5067139;28;19944;-38
2023/06/03 06:32:03;;;;;;;;;;;;;;;;;;5057544;28;19955;-37
2023/06/03 06:34:31;;;;;;;;;;;;;;;;;;5065707;28;19921;-37
2023/06/03 06:36:57;;;;;;;;;;;;;;;;;;5068255;28;19923;-37
2023/06/03 06:39:23;;;;;;;;;;;;;;;;;;5069133;28;19909;-37
2023/06/03 06:41:49;;;;;;;;;;;;;;;;;;5050630;28;19920;-38
2023/06/03 06:44:15;;;;;;;;;;;;;;;;;;5065795;28;19912;-37
2023/06/03 06:46:41;;;;;;;;;;;;;;;;;;5049398;28;19920;-37
2023/06/03 06:49:07;;;;;;;;;;;;;;;;;;5063297;28;19916;-40
2023/06/03 06:51:33;;;;;;;;;;;;;;;;;;5072980;28;19944;-37
2023/06/03 06:53:59;;;;;;;;;;;;;;;;;;5051394;28;20387;-37
2023/06/03 06:56:25;;;;;;;;;;;;;;;;;;5082120;28;19918;-37
2023/06/03 06:58:51;;;;;;;;;;;;;;;;;;5088572;28;19912;-37
2023/06/03 07:01:17;;;;;;;;;;;;;;;;;;5074254;28;20011;-37
2023/06/03 07:03:44;;;;;;;;;;;;;;;;;;5055340;28;19919;-37
2023/06/03 07:06:10;;;;;;;;;;;;;;;;;;5089384;28;19912;-38
2023/06/03 07:08:36;;;;;;;;;;;;;;;;;;5077551;28;20015;-38
2023/06/03 07:11:02;;;;;;;;;;;;;;;;;;5059661;28;20565;-37
2023/06/03 07:13:28;;;;;;;;;;;;;;;;;;5064351;28;19943;-37
2023/06/03 07:15:55;;;;;;;;;;;;;;;;;;5060900;28;20011;-38
2023/06/03 07:18:21;;;;;;;;;;;;;;;;;;5060561;28;19960;-37
2023/06/03 07:20:47;;;;;;;;;;;;;;;;;;5077729;28;19956;-37
2023/06/03 07:23:13;;;;;;;;;;;;;;;;;;5063011;28;19959;-37
2023/06/03 07:25:39;;;;;;;;;;;;;;;;;;5067490;28;19921;-38
2023/06/03 07:28:05;;;;;;;;;;;;;;;;;;5058812;28;20376;-37
2023/06/03 07:30:31;;;;;;;;;;;;;;;;;;5072181;28;19915;-37
2023/06/03 07:32:58;;;;;;;;;;;;;;;;;;5063659;28;20066;-37
2023/06/03 07:35:24;;;;;;;;;;;;;;;;;;5067439;28;19908;-37
2023/06/03 07:37:51;;;;;;;;;;;;;;;;;;5087744;28;20349;-37
2023/06/03 07:40:17;;;;;;;;;;;;;;;;;;5073165;28;19990;-37
2023/06/03 07:42:43;;;;;;;;;;;;;;;;;;5063014;28;19917;-38
2023/06/03 07:45:09;;;;;;;;;;;;;;;;;;5069819;28;19913;-37
2023/06/03 07:47:35;;;;;;;;;;;;;;;;;;5066712;28;19908;-37
2023/06/03 07:50:02;;;;;;;;;;;;;;;;;;5068486;28;19967;-37
2023/06/03 07:52:29;;;;;;;;;;;;;;;;;;5070449;28;19913;-37
2023/06/03 07:54:55;;;;;;;;;;;;;;;;;;5069732;28;19994;-38
2023/06/03 07:57:22;;;;;;;;;;;;;;;;;;5059145;28;19916;-37
2023/06/03 07:59:48;;;;;;;;;;;;;;;;;;5057960;28;19913;-37
2023/06/03 08:02:14;;;;;;;;;;;;;;;;;;5076323;28;19954;-38
2023/06/03 08:04:40;;;;;;;;;;;;;;;;;;5071917;28;19955;-38
2023/06/03 08:07:06;;;;;;;;;;;;;;;;;;5070289;28;19995;-38
2023/06/03 08:09:32;;;;;;;;;;;;;;;;;;5052950;28;20291;-38
2023/06/03 08:11:58;;;;;;;;;;;;;;;;;;5070053;28;19912;-38
2023/06/03 08:14:25;;;;;;;;;;;;;;;;;;5070492;28;19920;-37
2023/06/03 08:16:51;;;;;;;;;;;;;;;;;;5069749;28;19965;-38
2023/06/03 08:19:17;;;;;;;;;;;;;;;;;;5085689;28;19912;-38
2023/06/03 08:21:44;;;;;;;;;;;;;;;;;;5071333;28;19922;-37
2023/06/03 08:24:10;;;;;;;;;;;;;;;;;;5067543;28;20008;-38
2023/06/03 08:26:36;;;;;;;;;;;;;;;;;;5070586;28;19920;-38
2023/06/03 08:29:03;;;;;;;;;;;;;;;;;;5070549;28;19912;-38
2023/06/03 08:31:30;;;;;;;;;;;;;;;;;;5075512;28;20030;-38
2023/06/03 08:33:56;;;;;;;;;;;;;;;;;;5076063;28;19916;-37
2023/06/03 08:36:22;;;;;;;;;;;;;;;;;;5069731;28;19908;-38
2023/06/03 08:38:48;;;;;;;;;;;;;;;;;;5069195;28;19916;-37
2023/06/03 08:41:14;;;;;;;;;;;;;;;;;;5069940;28;20318;-38
2023/06/03 08:43:40;;;;;;;;;;;;;;;;;;5078554;28;19973;-38
2023/06/03 08:46:06;;;;;;;;;;;;;;;;;;5090339;28;19915;-38
2023/06/03 08:48:32;;;;;;;;;;;;;;;;;;5090054;28;20287;-38
2023/06/03 08:50:58;;;;;;;;;;;;;;;;;;5090195;28;19919;-38
2023/06/03 08:53:24;;;;;;;;;;;;;;;;;;5090723;28;19908;-38
2023/06/03 08:55:51;;;;;;;;;;;;;;;;;;5090655;28;19908;-38
2023/06/03 08:58:17;;;;;;;;;;;;;;;;;;5088816;28;20295;-37
2023/06/03 09:00:42;;;;;;;;;;;;;;;;;;5090413;28;19915;-37
2023/06/03 09:03:08;;;;;;;;;;;;;;;;;;5089769;28;19912;-38
2023/06/03 09:05:34;;;;;;;;;;;;;;;;;;5090318;28;19943;-38
2023/06/03 09:08:00;;;;;;;;;;;;;;;;;;5038629;28;19991;-38
2023/06/03 09:10:26;;;;;;;;;;;;;;;;;;5070846;28;19916;-38
2023/06/03 09:12:54;;;;;;;;;;;;;;;;;;5068206;28;19913;-38
2023/06/03 09:15:20;;;;;;;;;;;;;;;;;;5069857;28;19940;-38
2023/06/03 09:17:46;;;;;;;;;;;;;;;;;;5069693;28;19971;-38
2023/06/03 09:20:12;;;;;;;;;;;;;;;;;;5075159;28;19908;-37
2023/06/03 09:22:38;;;;;;;;;;;;;;;;;;5076927;28;19912;-38
2023/06/03 09:25:04;;;;;;;;;;;;;;;;;;5067226;28;19920;-38
2023/06/03 09:27:30;;;;;;;;;;;;;;;;;;5069732;28;19924;-37
2023/06/03 09:29:57;;;;;;;;;;;;;;;;;;5069510;28;20006;-38
2023/06/03 09:32:23;;;;;;;;;;;;;;;;;;5070402;28;20268;-37
2023/06/03 09:34:50;;;;;;;;;;;;;;;;;;5069629;28;19942;-38
2023/06/03 09:37:15;;;;;;;;;;;;;;;;;;5069580;28;19916;-38
2023/06/03 09:39:42;;;;;;;;;;;;;;;;;;5067757;28;19908;-37
2023/06/03 09:42:08;;;;;;;;;;;;;;;;;;5068050;28;20043;-38
2023/06/03 09:44:34;;;;;;;;;;;;;;;;;;5069403;28;20550;-38
2023/06/03 09:47:00;;;;;;;;;;;;;;;;;;5069438;28;19970;-38
2023/06/03 09:49:26;;;;;;;;;;;;;;;;;;5070028;28;20037;-38
2023/06/03 09:51:52;;;;;;;;;;;;;;;;;;5069660;28;19915;-37
2023/06/03 09:54:18;;;;;;;;;;;;;;;;;;5082334;28;19912;-38
2023/06/03 09:56:47;;;;;;;;;;;;;;;;;;5087605;28;19912;-37
2023/06/03 09:59:14;;;;;;;;;;;;;;;;;;5074857;28;19916;-38
2023/06/03 10:01:40;;;;;;;;;;;;;;;;;;5069229;28;19985;-38
2023/06/03 10:04:06;;;;;;;;;;;;;;;;;;5069528;28;19920;-38
2023/06/03 10:06:35;;;;;;;;;;;;;;;;;;5076994;28;20286;-38
2023/06/03 10:09:02;;;;;;;;;;;;;;;;;;5075489;28;19912;-38
2023/06/03 10:11:28;;;;;;;;;;;;;;;;;;5068319;28;20387;-38
2023/06/03 10:13:54;;;;;;;;;;;;;;;;;;5068037;28;20069;-38
2023/06/03 10:16:20;;;;;;;;;;;;;;;;;;5068213;28;19912;-38
2023/06/03 10:18:48;;;;;;;;;;;;;;;;;;5067876;28;19916;-37
2023/06/03 10:21:14;;;;;;;;;;;;;;;;;;5068109;28;19917;-38
2023/06/03 10:23:40;;;;;;;;;;;;;;;;;;5067700;28;19974;-38
2023/06/03 10:26:06;;;;;;;;;;;;;;;;;;5066284;28;19991;-38
2023/06/03 10:28:32;;;;;;;;;;;;;;;;;;5067647;28;19908;-38
2023/06/03 10:30:58;;;;;;;;;;;;;;;;;;5067929;28;20427;-38
2023/06/03 10:33:25;;;;;;;;;;;;;;;;;;5068380;28;20387;-38
2023/06/03 10:35:51;;;;;;;;;;;;;;;;;;5067559;28;19913;-38
2023/06/03 10:38:16;;;;;;;;;;;;;;;;;;5067680;28;20387;-38
2023/06/03 10:40:42;;;;;;;;;;;;;;;;;;5067285;28;19908;-38
2023/06/03 10:43:08;;;;;;;;;;;;;;;;;;5067484;28;19912;-38
2023/06/03 10:45:34;;;;;;;;;;;;;;;;;;5067399;28;20377;-38
2023/06/03 10:48:00;;;;;;;;;;;;;;;;;;5067440;28;19916;-38
2023/06/03 10:50:26;;;;;;;;;;;;;;;;;;5068255;28;19963;-38
2023/06/03 10:52:52;;;;;;;;;;;;;;;;;;5068302;28;19960;-38
2023/06/03 10:55:18;;;;;;;;;;;;;;;;;;5061301;28;19913;-38
2023/06/03 10:57:44;;;;;;;;;;;;;;;;;;5067223;28;19912;-38
2023/06/03 11:00:10;;;;;;;;;;;;;;;;;;5067308;28;19963;-38
2023/06/03 11:02:36;;;;;;;;;;;;;;;;;;5075659;28;20268;-38
2023/06/03 11:05:02;;;;;;;;;;;;;;;;;;5063705;28;20452;-38
2023/06/03 11:07:28;;;;;;;;;;;;;;;;;;5046372;28;19923;-38
2023/06/03 11:09:54;;;;;;;;;;;;;;;;;;5065244;28;19917;-38
2023/06/03 11:12:20;;;;;;;;;;;;;;;;;;5067297;28;19917;-37
2023/06/03 11:14:48;;;;;;;;;;;;;;;;;;5076632;28;19915;-38
2023/06/03 11:17:15;;;;;;;;;;;;;;;;;;5072003;28;19919;-38
2023/06/03 11:19:41;;;;;;;;;;;;;;;;;;5067481;28;19916;-38
2023/06/03 11:22:09;;;;;;;;;;;;;;;;;;5067795;28;19916;-38
2023/06/03 11:24:35;;;;;;;;;;;;;;;;;;5065759;28;19920;-38
2023/06/03 11:27:01;;;;;;;;;;;;;;;;;;5065112;28;19920;-38
2023/06/03 11:29:27;;;;;;;;;;;;;;;;;;5067373;28;19908;-38
2023/06/03 11:31:53;;;;;;;;;;;;;;;;;;5067113;28;19909;-38
2023/06/03 11:34:19;;;;;;;;;;;;;;;;;;5067253;28;19915;-38
2023/06/03 11:36:46;;;;;;;;;;;;;;;;;;5065640;28;19931;-38
2023/06/03 11:39:12;;;;;;;;;;;;;;;;;;5066833;28;19912;-38
2023/06/03 11:41:38;;;;;;;;;;;;;;;;;;5066488;28;19911;-38
2023/06/03 11:44:04;;;;;;;;;;;;;;;;;;5064630;28;19955;-38
2023/06/03 11:46:30;;;;;;;;;;;;;;;;;;5067217;28;19916;-38
2023/06/03 11:48:56;;;;;;;;;;;;;;;;;;5066918;28;19913;-38
2023/06/03 11:51:22;;;;;;;;;;;;;;;;;;5062254;28;19916;-38
2023/06/03 11:53:48;;;;;;;;;;;;;;;;;;5079673;28;21127;-38
2023/06/03 11:56:14;;;;;;;;;;;;;;;;;;5059443;28;20399;-38
2023/06/03 11:58:40;;;;;;;;;;;;;;;;;;5067353;28;19916;-38
2023/06/03 12:01:07;;;;;;;;;;;;;;;;;;5067595;28;19909;-38
2023/06/03 12:03:34;;;;;;;;;;;;;;;;;;5066692;28;19944;-38
2023/06/03 12:06:02;;;;;;;;;;;;;;;;;;5066496;28;19955;-38
2023/06/03 12:08:28;;;;;;;;;;;;;;;;;;5064954;28;19908;-38
2023/06/03 12:10:53;;;;;;;;;;;;;;;;;;5052133;28;19983;-38
2023/06/03 12:13:19;;;;;;;;;;;;;;;;;;5082581;28;20418;-39
2023/06/03 12:15:45;;;;;;;;;;;;;;;;;;5086456;28;20252;-39
2023/06/03 12:18:11;;;;;;;;;;;;;;;;;;5086424;28;19916;-38
2023/06/03 12:20:37;;;;;;;;;;;;;;;;;;5087111;28;19914;-38
2023/06/03 12:23:03;;;;;;;;;;;;;;;;;;5086074;28;19934;-39
2023/06/03 12:25:29;;;;;;;;;;;;;;;;;;5057757;28;20117;-38
2023/06/03 12:27:56;;;;;;;;;;;;;;;;;;5058923;28;20549;-38
2023/06/03 12:30:22;;;;;;;;;;;;;;;;;;5046841;28;19963;-39
2023/06/03 12:32:48;;;;;;;;;;;;;;;;;;5046477;28;19925;-39
2023/06/03 12:35:14;;;;;;;;;;;;;;;;;;5046671;28;20008;-38
2023/06/03 12:37:40;;;;;;;;;;;;;;;;;;5049925;28;20300;-38
2023/06/03 12:40:06;;;;;;;;;;;;;;;;;;5049847;28;19916;-39
2023/06/03 12:42:31;;;;;;;;;;;;;;;;;;5049786;28;19944;-39
2023/06/03 12:44:57;;;;;;;;;;;;;;;;;;5049610;28;19920;-39
2023/06/03 12:47:24;;;;;;;;;;;;;;;;;;5055188;28;20391;-39
2023/06/03 12:49:49;;;;;;;;;;;;;;;;;;5048880;28;19964;-39
2023/06/03 12:52:16;;;;;;;;;;;;;;;;;;5053421;28;20327;-39
2023/06/03 12:54:42;;;;;;;;;;;;;;;;;;5076894;28;19999;-39
2023/06/03 12:57:09;;;;;;;;;;;;;;;;;;5066724;28;19999;-39
2023/06/03 12:59:36;;;;;;;;;;;;;;;;;;5061670;28;19963;-39
2023/06/03 13:02:02;;;;;;;;;;;;;;;;;;5061414;28;20019;-39
2023/06/03 13:04:28;;;;;;;;;;;;;;;;;;5067225;28;20375;-39
2023/06/03 13:06:54;;;;;;;;;;;;;;;;;;5065905;28;19958;-39
2023/06/03 13:09:20;;;;;;;;;;;;;;;;;;5058595;28;19983;-39
2023/06/03 13:11:45;;;;;;;;;;;;;;;;;;5067870;28;19999;-39
2023/06/03 13:14:11;;;;;;;;;;;;;;;;;;5069148;28;19924;-39
2023/06/03 13:16:37;;;;;;;;;;;;;;;;;;5066716;28;19975;-39
2023/06/03 13:19:03;;;;;;;;;;;;;;;;;;5032261;28;19924;-39
2023/06/03 13:21:29;;;;;;;;;;;;;;;;;;5062580;28;19920;-39
2023/06/03 13:23:55;;;;;;;;;;;;;;;;;;5045607;28;19916;-39
2023/06/03 13:26:23;;;;;;;;;;;;;;;;;;5079587;28;20287;-48
2023/06/03 13:28:49;;;;;;;;;;;;;;;;;;5058834;28;19963;-40
2023/06/03 13:31:15;;;;;;;;;;;;;;;;;;5051682;28;19917;-40
2023/06/03 13:33:41;;;;;;;;;;;;;;;;;;5051435;28;19990;-40
2023/06/03 13:36:07;;;;;;;;;;;;;;;;;;5063042;28;19920;-40
2023/06/03 13:38:33;;;;;;;;;;;;;;;;;;5062763;28;19924;-49
2023/06/03 13:40:59;;;;;;;;;;;;;;;;;;5055274;28;19916;-40
2023/06/03 13:43:25;;;;;;;;;;;;;;;;;;5054188;28;19913;-40
2023/06/03 13:45:51;;;;;;;;;;;;;;;;;;5059165;28;19927;-40
2023/06/03 13:48:17;;;;;;;;;;;;;;;;;;5065119;28;19944;-40
2023/06/03 13:50:43;;;;;;;;;;;;;;;;;;5057643;28;20002;-40
2023/06/03 13:53:08;;;;;;;;;;;;;;;;;;5074968;28;20012;-40
2023/06/03 13:55:34;;;;;;;;;;;;;;;;;;5084575;28;19920;-40
2023/06/03 13:58:00;;;;;;;;;;;;;;;;;;5058190;28;19921;-40
2023/06/03 14:00:27;;;;;;;;;;;;;;;;;;5060349;28;20417;-40
2023/06/03 14:02:53;;;;;;;;;;;;;;;;;;5066867;28;19999;-40
2023/06/03 14:05:20;;;;;;;;;;;;;;;;;;5057239;28;19920;-40
2023/06/03 14:07:46;;;;;;;;;;;;;;;;;;5048052;28;19991;-41
2023/06/03 14:10:12;;;;;;;;;;;;;;;;;;5051070;28;19996;-41
2023/06/03 14:12:38;;;;;;;;;;;;;;;;;;5079869;28;20322;-40
2023/06/03 14:15:04;;;;;;;;;;;;;;;;;;5086487;28;20378;-40
2023/06/03 14:17:30;;;;;;;;;;;;;;;;;;5047847;28;19913;-40
2023/06/03 14:19:56;;;;;;;;;;;;;;;;;;5052424;28;19917;-40
2023/06/03 14:22:23;;;;;;;;;;;;;;;;;;5040416;28;20032;-41
2023/06/03 14:24:49;;;;;;;;;;;;;;;;;;5049871;28;19935;-41
2023/06/03 14:27:16;;;;;;;;;;;;;;;;;;5066426;28;19908;-40
2023/06/03 14:29:43;;;;;;;;;;;;;;;;;;5065361;28;19912;-40
2023/06/03 14:32:09;;;;;;;;;;;;;;;;;;5066347;28;19920;-40
2023/06/03 14:34:35;;;;;;;;;;;;;;;;;;5061753;28;19966;-41
2023/06/03 14:37:01;;;;;;;;;;;;;;;;;;5067252;28;19919;-40
2023/06/03 14:39:27;;;;;;;;;;;;;;;;;;5075037;28;19916;-41
2023/06/03 14:41:53;;;;;;;;;;;;;;;;;;5047282;28;19916;-41
2023/06/03 14:44:20;;;;;;;;;;;;;;;;;;5046252;28;19913;-40
2023/06/03 14:46:46;;;;;;;;;;;;;;;;;;5046106;28;19908;-41
2023/06/03 14:49:12;;;;;;;;;;;;;;;;;;5053981;28;19917;-41
2023/06/03 14:51:38;;;;;;;;;;;;;;;;;;5067833;28;19955;-41
2023/06/03 14:54:04;;;;;;;;;;;;;;;;;;5082981;28;19912;-42
2023/06/03 14:56:30;;;;;;;;;;;;;;;;;;5069145;28;20059;-41
2023/06/03 14:58:57;;;;;;;;;;;;;;;;;;5052759;28;19979;-41
2023/06/03 15:01:26;;;;;;;;;;;;;;;;;;5045860;28;19909;-41
2023/06/03 15:03:52;;;;;;;;;;;;;;;;;;5050592;28;19920;-41
2023/06/03 15:06:19;;;;;;;;;;;;;;;;;;5052213;28;19912;-41
2023/06/03 15:08:45;;;;;;;;;;;;;;;;;;5050052;28;19999;-41
2023/06/03 15:11:11;;;;;;;;;;;;;;;;;;5046263;28;20051;-41
2023/06/03 15:13:37;;;;;;;;;;;;;;;;;;5045887;28;20304;-41
2023/06/03 15:16:04;;;;;;;;;;;;;;;;;;5045838;28;19913;-41
2023/06/03 15:18:30;;;;;;;;;;;;;;;;;;5045679;28;19921;-42
2023/06/03 15:20:56;;;;;;;;;;;;;;;;;;5051654;28;19916;-41
2023/06/03 15:23:21;;;;;;;;;;;;;;;;;;5065375;28;19916;-41
2023/06/03 15:25:47;;;;;;;;;;;;;;;;;;5065682;28;19912;-42
2023/06/03 15:28:13;;;;;;;;;;;;;;;;;;5065270;28;19913;-42
2023/06/03 15:30:39;;;;;;;;;;;;;;;;;;5056996;28;19920;-41
2023/06/03 15:33:05;;;;;;;;;;;;;;;;;;5061651;28;19909;-41
2023/06/03 15:35:31;;;;;;;;;;;;;;;;;;5071047;28;19913;-42
2023/06/03 15:37:57;;;;;;;;;;;;;;;;;;5052567;28;19916;-42
2023/06/03 15:40:23;;;;;;;;;;;;;;;;;;5060400;28;19955;-42
2023/06/03 15:42:49;;;;;;;;;;;;;;;;;;5048688;28;19919;-42
2023/06/03 15:45:14;;;;;;;;;;;;;;;;;;5051698;28;19913;-41
2023/06/03 15:47:41;;;;;;;;;;;;;;;;;;5054310;28;19923;-42
2023/06/03 15:50:08;;;;;;;;;;;;;;;;;;5054974;28;19919;-42
2023/06/03 15:52:34;;;;;;;;;;;;;;;;;;5062334;28;20383;-42
2023/06/03 15:55:00;;;;;;;;;;;;;;;;;;5062410;28;19967;-42
2023/06/03 15:57:26;;;;;;;;;;;;;;;;;;5061876;28;20424;-42
2023/06/03 15:59:52;;;;;;;;;;;;;;;;;;5056101;28;19954;-41
2023/06/03 16:02:18;;;;;;;;;;;;;;;;;;5060530;28;20446;-41
2023/06/03 16:04:43;;;;;;;;;;;;;;;;;;5056615;28;19924;-41
2023/06/03 16:07:10;;;;;;;;;;;;;;;;;;5063416;28;20415;-42
2023/06/03 16:09:36;;;;;;;;;;;;;;;;;;5061598;28;19928;-43
2023/06/03 16:12:01;;;;;;;;;;;;;;;;;;5065732;28;20292;-42
2023/06/03 16:14:29;;;;;;;;;;;;;;;;;;5038608;28;20772;-41
2023/06/03 16:16:55;;;;;;;;;;;;;;;;;;5056026;28;20384;-42
2023/06/03 16:19:22;;;;;;;;;;;;;;;;;;5055109;28;20410;-42
2023/06/03 16:21:48;;;;;;;;;;;;;;;;;;5059964;28;19916;-43
2023/06/03 16:24:14;;;;;;;;;;;;;;;;;;5062684;28;20371;-43
2023/06/03 16:26:42;;;;;;;;;;;;;;;;;;5064782;28;19956;-42
2023/06/03 16:29:08;;;;;;;;;;;;;;;;;;5032944;28;20376;-43
2023/06/03 16:31:35;;;;;;;;;;;;;;;;;;5034462;28;19990;-42
2023/06/03 16:34:01;;;;;;;;;;;;;;;;;;5061818;28;20422;-43
2023/06/03 16:36:28;;;;;;;;;;;;;;;;;;5062209;28;20434;-42
2023/06/03 16:38:54;;;;;;;;;;;;;;;;;;5059985;28;19975;-42
2023/06/03 16:41:20;;;;;;;;;;;;;;;;;;5063579;28;20410;-42
2023/06/03 16:43:46;;;;;;;;;;;;;;;;;;5032463;28;19913;-42
2023/06/03 16:46:12;;;;;;;;;;;;;;;;;;5053441;28;19963;-41
2023/06/03 16:48:39;;;;;;;;;;;;;;;;;;5064964;28;20371;-44
2023/06/03 16:51:06;;;;;;;;;;;;;;;;;;5058460;28;19962;-43
2023/06/03 16:53:32;;;;;;;;;;;;;;;;;;5063758;28;20530;-43
2023/06/03 16:55:58;;;;;;;;;;;;;;;;;;5053928;28;19913;-43
2023/06/03 16:58:25;;;;;;;;;;;;;;;;;;5064758;28;19916;-42
2023/06/03 17:00:52;;;;;;;;;;;;;;;;;;5066839;28;19908;-42
2023/06/03 17:03:19;;;;;;;;;;;;;;;;;;5042310;28;19912;-44
2023/06/03 17:05:45;;;;;;;;;;;;;;;;;;5052307;28;19916;-43
2023/06/03 17:08:14;;;;;;;;;;;;;;;;;;5060277;28;19935;-43
2023/06/03 17:10:39;;;;;;;;;;;;;;;;;;5058801;28;20376;-42
2023/06/03 17:13:06;;;;;;;;;;;;;;;;;;5064364;28;20267;-43
2023/06/03 17:15:33;;;;;;;;;;;;;;;;;;5039941;28;20427;-43
2023/06/03 17:17:59;;;;;;;;;;;;;;;;;;5064629;28;19976;-43
2023/06/03 17:20:25;;;;;;;;;;;;;;;;;;5061393;28;20303;-43
2023/06/03 17:22:51;;;;;;;;;;;;;;;;;;5045879;28;19917;-43
2023/06/03 17:25:18;;;;;;;;;;;;;;;;;;5056876;28;19920;-43
2023/06/03 17:27:44;;;;;;;;;;;;;;;;;;5054143;28;19916;-43
2023/06/03 17:30:11;;;;;;;;;;;;;;;;;;5048752;28;19923;-41
2023/06/03 17:32:38;;;;;;;;;;;;;;;;;;5060655;28;20322;-41
2023/06/03 17:35:04;;;;;;;;;;;;;;;;;;5053390;28;19919;-45
2023/06/03 17:37:30;;;;;;;;;;;;;;;;;;5036900;28;19917;-44
2023/06/03 17:39:56;;;;;;;;;;;;;;;;;;5059776;28;19966;-45
2023/06/03 17:42:21;;;;;;;;;;;;;;;;;;5063173;28;20295;-43
2023/06/03 17:44:47;;;;;;;;;;;;;;;;;;5041737;28;19916;-44
2023/06/03 17:47:14;;;;;;;;;;;;;;;;;;5059208;28;19913;-43
2023/06/03 17:49:40;;;;;;;;;;;;;;;;;;5037006;28;19921;-43
2023/06/03 17:52:06;;;;;;;;;;;;;;;;;;5060094;28;20395;-43
2023/06/03 17:54:32;;;;;;;;;;;;;;;;;;5063359;28;19917;-41
2023/06/03 17:56:58;;;;;;;;;;;;;;;;;;5056651;28;19913;-42
2023/06/03 17:59:25;;;;;;;;;;;;;;;;;;5056791;28;19913;-45
2023/06/03 18:01:51;;;;;;;;;;;;;;;;;;5059571;28;19916;-44
2023/06/03 18:04:17;;;;;;;;;;;;;;;;;;5059550;28;19920;-45
2023/06/03 18:06:43;;;;;;;;;;;;;;;;;;5062864;28;19920;-44
2023/06/03 18:09:09;;;;;;;;;;;;;;;;;;5059734;28;20447;-43
2023/06/03 18:11:35;;;;;;;;;;;;;;;;;;5064267;28;19927;-44
2023/06/03 18:14:01;;;;;;;;;;;;;;;;;;5058380;28;19917;-44
2023/06/03 18:16:27;;;;;;;;;;;;;;;;;;5031812;28;20256;-44
2023/06/03 18:18:53;;;;;;;;;;;;;;;;;;5056611;28;20358;-44
2023/06/03 18:21:19;;;;;;;;;;;;;;;;;;5038831;28;20019;-45
2023/06/03 18:23:45;;;;;;;;;;;;;;;;;;5059952;28;19917;-43
2023/06/03 18:26:11;;;;;;;;;;;;;;;;;;5038324;28;19916;-43
2023/06/03 18:28:37;;;;;;;;;;;;;;;;;;5029836;28;20015;-44
2023/06/03 18:31:05;;;;;;;;;;;;;;;;;;5051794;28;20516;-43
2023/06/03 18:33:30;;;;;;;;;;;;;;;;;;5064091;28;20464;-43
2023/06/03 18:35:57;;;;;;;;;;;;;;;;;;5036348;28;19978;-42
2023/06/03 18:38:24;;;;;;;;;;;;;;;;;;5062450;28;19924;-43
2023/06/03 18:40:50;;;;;;;;;;;;;;;;;;5064554;28;19918;-42
2023/06/03 18:43:16;;;;;;;;;;;;;;;;;;5064238;28;19920;-42
2023/06/03 18:45:43;;;;;;;;;;;;;;;;;;5046288;28;20211;-42
2023/06/03 18:48:09;;;;;;;;;;;;;;;;;;5043442;28;19978;-41
2023/06/03 18:50:37;;;;;;;;;;;;;;;;;;5060804;28;20010;-41
2023/06/03 18:53:03;;;;;;;;;;;;;;;;;;5061126;28;20015;-41
2023/06/03 18:55:30;;;;;;;;;;;;;;;;;;5051574;28;20075;-42
2023/06/03 18:57:57;;;;;;;;;;;;;;;;;;5063732;28;19927;-41
2023/06/03 19:00:22;;;;;;;;;;;;;;;;;;5057567;28;19963;-42
2023/06/03 19:02:48;;;;;;;;;;;;;;;;;;5050068;28;19952;-44
2023/06/03 19:05:14;;;;;;;;;;;;;;;;;;5064816;28;19912;-43
2023/06/03 19:07:40;;;;;;;;;;;;;;;;;;5061912;28;19923;-42
2023/06/03 19:10:06;;;;;;;;;;;;;;;;;;5064206;28;20345;-43
2023/06/03 19:12:32;;;;;;;;;;;;;;;;;;5045823;28;19916;-42
2023/06/03 19:14:58;;;;;;;;;;;;;;;;;;5057113;28;20015;-42
2023/06/03 19:17:25;;;;;;;;;;;;;;;;;;5065180;28;19912;-42
2023/06/03 19:19:51;;;;;;;;;;;;;;;;;;5063498;28;19920;-43
2023/06/03 19:22:18;;;;;;;;;;;;;;;;;;5038813;28;19940;-41
2023/06/03 19:24:43;;;;;;;;;;;;;;;;;;5057120;28;19960;-42
2023/06/03 19:27:09;;;;;;;;;;;;;;;;;;5064427;28;19959;-41
2023/06/03 19:29:36;;;;;;;;;;;;;;;;;;5062836;28;19912;-42
2023/06/03 19:32:02;;;;;;;;;;;;;;;;;;5054926;28;19913;-42
2023/06/03 19:34:28;;;;;;;;;;;;;;;;;;5062636;28;19923;-41
2023/06/03 19:36:54;;;;;;;;;;;;;;;;;;5063108;28;20383;-41
2023/06/03 19:39:21;;;;;;;;;;;;;;;;;;5028422;28;19951;-41
2023/06/03 19:41:47;;;;;;;;;;;;;;;;;;5062966;28;19916;-41
2023/06/03 19:44:13;;;;;;;;;;;;;;;;;;5063460;28;19943;-41
2023/06/03 19:46:40;;;;;;;;;;;;;;;;;;5066635;28;19956;-40
2023/06/03 19:49:05;;;;;;;;;;;;;;;;;;5057590;28;20015;-41
2023/06/03 19:51:31;;;;;;;;;;;;;;;;;;5060835;28;20378;-41
2023/06/03 19:53:58;;;;;;;;;;;;;;;;;;5061348;28;19913;-41
2023/06/03 19:56:25;;;;;;;;;;;;;;;;;;5064124;28;19913;-41
2023/06/03 19:58:51;;;;;;;;;;;;;;;;;;5061784;28;19916;-41
2023/06/03 20:01:17;;;;;;;;;;;;;;;;;;5064150;28;19916;-41
2023/06/03 20:03:43;;;;;;;;;;;;;;;;;;5061064;28;20399;-41
2023/06/03 20:06:09;;;;;;;;;;;;;;;;;;5051345;28;19977;-41
2023/06/03 20:08:35;;;;;;;;;;;;;;;;;;5063847;28;19955;-41
2023/06/03 20:11:02;;;;;;;;;;;;;;;;;;5059684;28;20373;-41
2023/06/03 20:13:28;;;;;;;;;;;;;;;;;;5058377;28;20356;-41
2023/06/03 20:15:54;;;;;;;;;;;;;;;;;;5064712;28;19978;-41
2023/06/03 20:18:20;;;;;;;;;;;;;;;;;;5061922;28;20122;-41
2023/06/03 20:20:46;;;;;;;;;;;;;;;;;;5056086;28;19917;-41
2023/06/03 20:23:14;;;;;;;;;;;;;;;;;;5062980;28;19924;-41
2023/06/03 20:25:41;;;;;;;;;;;;;;;;;;5047824;28;20399;-41
2023/06/03 20:28:08;;;;;;;;;;;;;;;;;;5063992;28;19920;-41
2023/06/03 20:30:34;;;;;;;;;;;;;;;;;;5053907;28;19908;-41
2023/06/03 20:33:00;;;;;;;;;;;;;;;;;;5067444;28;19924;-41
2023/06/03 20:35:27;;;;;;;;;;;;;;;;;;5049525;28;19928;-41
2023/06/03 20:37:52;;;;;;;;;;;;;;;;;;5049125;28;19924;-41
2023/06/03 20:40:19;;;;;;;;;;;;;;;;;;5067485;28;19912;-41
2023/06/03 20:42:45;;;;;;;;;;;;;;;;;;5049341;28;19916;-41
2023/06/03 20:45:12;;;;;;;;;;;;;;;;;;5067191;28;19919;-41
2023/06/03 20:47:38;;;;;;;;;;;;;;;;;;5035508;28;19913;-42
2023/06/03 20:50:04;;;;;;;;;;;;;;;;;;5046993;28;19951;-41
2023/06/03 20:52:30;;;;;;;;;;;;;;;;;;5047146;28;19916;-41
2023/06/03 20:54:55;;;;;;;;;;;;;;;;;;5047604;28;20364;-41
2023/06/03 20:57:21;;;;;;;;;;;;;;;;;;5047094;28;19940;-41
2023/06/03 20:59:47;;;;;;;;;;;;;;;;;;5060812;28;19928;-41
2023/06/03 21:02:13;;;;;;;;;;;;;;;;;;5087501;28;19912;-41
2023/06/03 21:04:40;;;;;;;;;;;;;;;;;;5055902;28;20003;-40
2023/06/03 21:07:08;;;;;;;;;;;;;;;;;;5036848;28;19917;-41
2023/06/03 21:09:34;;;;;;;;;;;;;;;;;;5047141;28;20421;-41
2023/06/03 21:12:00;;;;;;;;;;;;;;;;;;5054197;28;19917;-40
2023/06/03 21:14:26;;;;;;;;;;;;;;;;;;5067456;28;20159;-41
2023/06/03 21:16:52;;;;;;;;;;;;;;;;;;5048380;28;19919;-41
2023/06/03 21:19:18;;;;;;;;;;;;;;;;;;5048506;28;19928;-40
2023/06/03 21:21:44;;;;;;;;;;;;;;;;;;5030282;28;20471;-41
2023/06/03 21:24:10;;;;;;;;;;;;;;;;;;5046855;28;19912;-40
2023/06/03 21:26:37;;;;;;;;;;;;;;;;;;5038274;28;19913;-40
2023/06/03 21:29:03;;;;;;;;;;;;;;;;;;5057229;28;19935;-40
2023/06/03 21:31:29;;;;;;;;;;;;;;;;;;5080428;28;20823;-40
2023/06/03 21:33:55;;;;;;;;;;;;;;;;;;5030650;28;20409;-40
2023/06/03 21:36:21;;;;;;;;;;;;;;;;;;5046303;28;19909;-40
2023/06/03 21:38:48;;;;;;;;;;;;;;;;;;5046923;28;20281;-40
2023/06/03 21:41:13;;;;;;;;;;;;;;;;;;5046192;28;19913;-40
2023/06/03 21:43:40;;;;;;;;;;;;;;;;;;5046233;28;19920;-40
2023/06/03 21:46:06;;;;;;;;;;;;;;;;;;5028878;28;19913;-40